Time;durP1;ratioP1;P1;durP2;ratioP2;P2;SDS_P1;SDS_P2;PMS_P1;PMS_P2;Temp;Humidity;BMP_temperature;BMP_pressure;BME280_temperature;BME280_humidity;BME280_pressure;Samples;Min_cycle;Max_cycle;Signal;HPM_P1;HPM_P2
2021/08/01 00:01:56;;;;;;;21.42;16.00;;;;;;;;;;5072680;28;20131;-68
2021/08/01 00:04:42;;;;;;;20.42;16.23;;;;;;;;;;5072491;28;20078;-67
2021/08/01 00:07:27;;;;;;;25.67;16.80;;;;;;;;;;5071670;28;20059;-68
2021/08/01 00:10:13;;;;;;;19.08;16.15;;;;;;;;;;5072155;28;20094;-68
2021/08/01 00:12:58;;;;;;;18.63;15.52;;;;;;;;;;5071179;28;20068;-68
2021/08/01 00:15:43;;;;;;;20.35;15.90;;;;;;;;;;5070023;28;20414;-68
2021/08/01 00:18:29;;;;;;;19.98;16.42;;;;;;;;;;5071105;28;20175;-68
2021/08/01 00:21:14;;;;;;;21.30;15.75;;;;;;;;;;5051998;28;20511;-67
2021/08/01 00:24:00;;;;;;;22.40;16.30;;;;;;;;;;5052228;28;20045;-67
2021/08/01 00:26:45;;;;;;;20.55;14.80;;;;;;;;;;5064524;28;20052;-68
2021/08/01 00:29:35;;;;;;;25.13;17.05;;;;;;;;;;5072002;28;20052;-68
2021/08/01 00:32:20;;;;;;;29.48;17.83;;;;;;;;;;5071209;28;20514;-67
2021/08/01 00:35:06;;;;;;;25.00;17.70;;;;;;;;;;5071148;28;20072;-68
2021/08/01 00:37:51;;;;;;;27.13;16.60;;;;;;;;;;5068069;28;20170;-68
2021/08/01 00:40:37;;;;;;;26.88;17.27;;;;;;;;;;5070945;28;20042;-68
2021/08/01 00:43:22;;;;;;;28.20;18.50;;;;;;;;;;5071087;28;20123;-68
2021/08/01 00:46:08;;;;;;;30.05;18.58;;;;;;;;;;5071876;28;20052;-69
2021/08/01 00:48:53;;;;;;;33.08;20.42;;;;;;;;;;5069911;28;20055;-69
2021/08/01 00:51:38;;;;;;;31.30;18.77;;;;;;;;;;5071697;28;20151;-69
2021/08/01 00:54:24;;;;;;;24.98;18.45;;;;;;;;;;5085051;28;20052;-68
2021/08/01 00:57:09;;;;;;;30.23;19.80;;;;;;;;;;5068961;28;20040;-69
2021/08/01 00:59:55;;;;;;;32.83;20.77;;;;;;;;;;5084893;28;20452;-68
2021/08/01 01:02:42;;;;;;;31.30;20.08;;;;;;;;;;5065802;28;20060;-68
2021/08/01 01:05:32;;;;;;;32.95;19.60;;;;;;;;;;5085031;28;20051;-68
2021/08/01 01:08:23;;;;;;;31.05;20.95;;;;;;;;;;5069329;28;20043;-68
2021/08/01 01:11:46;;;;;;;31.25;20.77;;;;;;;;;;5069369;28;20522;-68
2021/08/01 01:14:32;;;;;;;28.63;19.02;;;;;;;;;;5053084;28;20051;-68
2021/08/01 01:17:21;;;;;;;26.77;18.08;;;;;;;;;;5070530;28;20068;-68
2021/08/01 01:20:09;;;;;;;36.15;20.70;;;;;;;;;;5071511;28;20052;-68
2021/08/01 01:22:58;;;;;;;39.72;21.15;;;;;;;;;;5059538;28;20041;-68
2021/08/01 01:26:05;;;;;;;39.88;20.73;;;;;;;;;;5053091;28;20045;-68
2021/08/01 01:28:53;;;;;;;38.08;21.92;;;;;;;;;;5049242;28;20486;-68
2021/08/01 01:31:46;;;;;;;34.45;20.95;;;;;;;;;;5074588;28;20072;-68
2021/08/01 01:34:38;;;;;;;39.15;22.13;;;;;;;;;;5088021;28;20037;-68
2021/08/01 01:37:24;;;;;;;40.25;21.73;;;;;;;;;;5064902;28;20044;-68
2021/08/01 01:40:10;;;;;;;47.75;22.42;;;;;;;;;;5059133;28;20041;-68
2021/08/01 01:43:23;;;;;;;44.63;21.90;;;;;;;;;;5058547;28;20044;-68
2021/08/01 01:46:09;;;;;;;46.35;24.73;;;;;;;;;;5058898;28;20067;-67
2021/08/01 01:48:54;;;;;;;48.05;24.35;;;;;;;;;;5074200;28;20098;-67
2021/08/01 01:51:39;;;;;;;46.25;24.30;;;;;;;;;;5069253;28;20134;-67
2021/08/01 01:54:25;;;;;;;33.65;21.13;;;;;;;;;;5054056;28;20049;-67
2021/08/01 01:57:11;;;;;;;44.03;24.63;;;;;;;;;;5054005;28;20532;-68
2021/08/01 01:59:57;;;;;;;45.10;24.23;;;;;;;;;;5071682;28;20041;-67
2021/08/01 02:02:42;;;;;;;42.10;24.10;;;;;;;;;;5074909;28;20602;-69
2021/08/01 02:05:28;;;;;;;47.78;25.83;;;;;;;;;;5086247;28;20044;-67
2021/08/01 02:08:48;;;;;;;50.95;27.67;;;;;;;;;;5068790;28;20041;-67
2021/08/01 02:12:13;;;;;;;63.45;31.35;;;;;;;;;;5061333;28;20044;-69
2021/08/01 02:15:08;;;;;;;68.00;32.20;;;;;;;;;;5073650;28;20097;-68
2021/08/01 02:17:56;;;;;;;67.78;34.92;;;;;;;;;;5073799;28;20129;-67
2021/08/01 02:20:45;;;;;;;59.53;32.22;;;;;;;;;;5059367;28;20037;-67
2021/08/01 02:23:37;;;;;;;63.22;32.65;;;;;;;;;;5060386;28;20052;-68
2021/08/01 02:26:24;;;;;;;62.33;32.90;;;;;;;;;;5065126;28;20063;-68
2021/08/01 02:29:09;;;;;;;84.00;36.40;;;;;;;;;;5074381;28;20047;-68
2021/08/01 02:31:54;;;;;;;62.70;30.70;;;;;;;;;;5072615;28;20045;-68
2021/08/01 02:34:49;;;;;;;75.47;31.42;;;;;;;;;;5074117;28;20037;-68
2021/08/01 02:37:36;;;;;;;63.08;30.00;;;;;;;;;;5086470;28;20051;-67
2021/08/01 02:40:21;;;;;;;71.50;32.05;;;;;;;;;;5071986;28;20064;-67
2021/08/01 02:43:09;;;;;;;62.83;30.17;;;;;;;;;;5062956;28;20052;-68
2021/08/01 02:45:55;;;;;;;53.97;30.80;;;;;;;;;;5069624;28;20047;-68
2021/08/01 02:48:41;;;;;;;59.65;31.55;;;;;;;;;;5073238;28;20070;-68
2021/08/01 02:51:28;;;;;;;69.88;33.85;;;;;;;;;;5062565;28;20544;-68
2021/08/01 02:54:13;;;;;;;69.82;33.97;;;;;;;;;;5074037;28;20049;-69
2021/08/01 02:57:03;;;;;;;86.68;38.92;;;;;;;;;;5057780;28;20044;-69
2021/08/01 02:59:49;;;;;;;82.38;38.95;;;;;;;;;;5058625;28;20044;-69
2021/08/01 03:02:34;;;;;;;58.55;33.53;;;;;;;;;;5057368;28;20120;-69
2021/08/01 03:05:23;;;;;;;86.68;41.67;;;;;;;;;;5058688;28;20556;-68
2021/08/01 03:08:12;;;;;;;76.78;37.20;;;;;;;;;;5044696;28;20033;-67
2021/08/01 03:10:58;;;;;;;83.68;38.50;;;;;;;;;;5073346;28;20051;-68
2021/08/01 03:13:44;;;;;;;81.50;37.47;;;;;;;;;;5073465;28;20040;-68
2021/08/01 03:16:29;;;;;;;86.43;39.45;;;;;;;;;;5082446;28;20043;-68
2021/08/01 03:19:16;;;;;;;78.97;38.03;;;;;;;;;;5086539;28;20482;-67
2021/08/01 03:22:02;;;;;;;85.93;39.90;;;;;;;;;;5066966;28;20422;-67
2021/08/01 03:24:54;;;;;;;95.90;41.13;;;;;;;;;;5073466;28;20513;-68
2021/08/01 03:27:40;;;;;;;71.63;39.28;;;;;;;;;;5085606;28;20310;-69
2021/08/01 03:30:25;;;;;;;83.47;41.80;;;;;;;;;;5072953;28;20415;-68
2021/08/01 03:33:11;;;;;;;74.57;40.08;;;;;;;;;;5073341;28;20126;-68
2021/08/01 03:35:57;;;;;;;77.88;41.90;;;;;;;;;;5071604;28;20044;-68
2021/08/01 03:39:05;;;;;;;81.78;42.83;;;;;;;;;;5072923;28;20040;-68
2021/08/01 03:41:53;;;;;;;90.25;43.75;;;;;;;;;;5071734;28;20044;-69
2021/08/01 03:44:43;;;;;;;97.00;42.22;;;;;;;;;;5061111;28;20051;-69
2021/08/01 03:47:28;;;;;;;83.07;40.97;;;;;;;;;;5056834;28;20718;-69
2021/08/01 03:50:14;;;;;;;91.07;43.75;;;;;;;;;;5072331;28;20402;-69
2021/08/01 03:52:59;;;;;;;81.85;42.60;;;;;;;;;;5072082;28;20410;-68
2021/08/01 03:55:44;;;;;;;89.63;43.67;;;;;;;;;;5129480;22;20054;-64
2021/08/01 03:58:30;;;;;;;96.70;45.80;;;;;;;;;;5113581;28;20055;-65
2021/08/01 04:01:16;;;;;;;87.53;42.33;;;;;;;;;;5112963;28;20039;-64
2021/08/01 04:04:02;;;;;;;84.95;42.72;;;;;;;;;;5112288;28;20508;-64
2021/08/01 04:06:47;;;;;;;80.55;41.65;;;;;;;;;;5113557;28;20048;-65
2021/08/01 04:09:32;;;;;;;77.22;43.38;;;;;;;;;;5117299;28;20054;-65
2021/08/01 04:12:19;;;;;;;80.55;41.80;;;;;;;;;;5117074;28;20039;-65
2021/08/01 04:15:05;;;;;;;79.57;43.63;;;;;;;;;;5117296;28;20044;-65
2021/08/01 04:17:51;;;;;;;80.05;42.70;;;;;;;;;;5120894;28;20568;-63
2021/08/01 04:20:38;;;;;;;77.30;40.50;;;;;;;;;;5120801;28;20122;-65
2021/08/01 04:23:23;;;;;;;78.95;42.72;;;;;;;;;;5093220;28;20044;-64
2021/08/01 04:26:09;;;;;;;87.03;42.78;;;;;;;;;;5092486;28;20067;-64
2021/08/01 04:28:55;;;;;;;84.30;44.15;;;;;;;;;;5096154;28;20044;-64
2021/08/01 04:31:40;;;;;;;88.10;44.10;;;;;;;;;;5112745;28;20084;-65
2021/08/01 04:34:25;;;;;;;75.97;43.00;;;;;;;;;;5112717;28;20134;-64
2021/08/01 04:37:11;;;;;;;79.28;41.40;;;;;;;;;;5116248;28;20044;-65
2021/08/01 04:39:56;;;;;;;77.95;41.17;;;;;;;;;;5114472;28;20043;-65
2021/08/01 04:42:42;;;;;;;75.00;41.67;;;;;;;;;;5112726;28;20112;-64
2021/08/01 04:45:28;;;;;;;67.07;39.28;;;;;;;;;;5112484;28;20044;-64
2021/08/01 04:48:13;;;;;;;75.60;40.88;;;;;;;;;;5112625;28;20122;-64
2021/08/01 04:50:58;;;;;;;72.53;38.78;;;;;;;;;;5110626;28;20096;-64
2021/08/01 04:53:44;;;;;;;73.38;40.17;;;;;;;;;;5112472;28;20574;-64
2021/08/01 04:56:30;;;;;;;78.18;41.55;;;;;;;;;;5112171;28;20505;-64
2021/08/01 04:59:17;;;;;;;74.30;40.13;;;;;;;;;;5112517;28;20067;-64
2021/08/01 05:02:03;;;;;;;82.05;42.22;;;;;;;;;;5115991;28;20046;-64
2021/08/01 05:04:48;;;;;;;80.18;40.20;;;;;;;;;;5116692;28;20035;-63
2021/08/01 05:07:34;;;;;;;90.97;46.30;;;;;;;;;;5116720;28;20051;-63
2021/08/01 05:10:19;;;;;;;83.20;42.83;;;;;;;;;;5115513;28;20520;-63
2021/08/01 05:13:07;;;;;;;77.47;40.40;;;;;;;;;;5116669;28;20048;-63
2021/08/01 05:15:52;;;;;;;78.05;40.80;;;;;;;;;;5119359;28;20048;-64
2021/08/01 05:18:38;;;;;;;70.75;39.47;;;;;;;;;;5116383;28;20040;-64
2021/08/01 05:21:23;;;;;;;82.20;40.63;;;;;;;;;;5115734;28;20513;-64
2021/08/01 05:24:09;;;;;;;70.70;38.83;;;;;;;;;;5130152;27;20501;-63
2021/08/01 05:26:54;;;;;;;76.90;40.10;;;;;;;;;;5116117;28;20534;-63
2021/08/01 05:29:40;;;;;;;72.10;38.08;;;;;;;;;;5115880;28;20662;-64
2021/08/01 05:32:25;;;;;;;71.60;37.15;;;;;;;;;;5115103;28;20449;-64
2021/08/01 05:35:11;;;;;;;73.00;39.05;;;;;;;;;;5116089;28;20067;-64
2021/08/01 05:37:56;;;;;;;76.70;39.30;;;;;;;;;;5116545;28;20071;-64
2021/08/01 05:40:44;;;;;;;78.45;40.38;;;;;;;;;;5116054;28;20459;-64
2021/08/01 05:43:29;;;;;;;70.50;37.60;;;;;;;;;;5112220;28;20050;-64
2021/08/01 05:46:14;;;;;;;76.45;38.78;;;;;;;;;;5114883;28;20057;-64
2021/08/01 05:49:00;;;;;;;77.45;37.33;;;;;;;;;;5115836;28;20200;-63
2021/08/01 05:51:45;;;;;;;91.30;40.50;;;;;;;;;;5114065;28;20052;-63
2021/08/01 06:25:05;;;;;;;76.65;41.08;;;;;;;;;;5097670;27;20418;-64
2021/08/01 06:27:51;;;;;;;69.35;38.30;;;;;;;;;;5089323;28;20043;-63
2021/08/01 06:30:36;;;;;;;83.38;39.95;;;;;;;;;;5076972;28;20113;-62
2021/08/01 06:33:23;;;;;;;85.47;41.72;;;;;;;;;;5086462;28;20040;-63
2021/08/01 06:36:08;;;;;;;68.82;38.60;;;;;;;;;;5083491;28;20112;-64
2021/08/01 06:38:54;;;;;;;76.43;39.25;;;;;;;;;;5088406;28;20036;-64
2021/08/01 06:41:39;;;;;;;88.30;43.90;;;;;;;;;;5077076;28;20040;-64
2021/08/01 06:44:25;;;;;;;70.80;39.53;;;;;;;;;;5126328;23;20040;-69
2021/08/01 06:47:10;;;;;;;87.07;40.47;;;;;;;;;;5103192;28;20044;-67
2021/08/01 06:49:55;;;;;;;86.47;40.95;;;;;;;;;;5097864;28;20032;-69
2021/08/01 06:52:41;;;;;;;99.03;45.55;;;;;;;;;;5087073;28;20048;-68
2021/08/01 06:55:26;;;;;;;95.30;43.83;;;;;;;;;;5066704;28;20052;-67
2021/08/01 06:58:12;;;;;;;78.07;39.20;;;;;;;;;;5068074;28;20182;-68
2021/08/01 07:00:57;;;;;;;85.10;43.03;;;;;;;;;;5065571;28;20412;-68
2021/08/01 07:03:43;;;;;;;88.40;42.05;;;;;;;;;;5064409;28;20056;-68
2021/08/01 07:06:28;;;;;;;88.65;42.85;;;;;;;;;;5049929;28;20135;-68
2021/08/01 07:09:13;;;;;;;96.28;44.20;;;;;;;;;;5065027;28;20482;-67
2021/08/01 07:11:58;;;;;;;110.28;46.75;;;;;;;;;;5065494;28;20128;-66
2021/08/01 07:14:44;;;;;;;111.32;45.58;;;;;;;;;;5063366;28;20055;-67
2021/08/01 07:17:30;;;;;;;109.68;46.95;;;;;;;;;;5065323;28;20123;-66
2021/08/01 07:20:15;;;;;;;82.47;39.58;;;;;;;;;;5066078;28;20045;-67
2021/08/01 07:23:00;;;;;;;35.83;22.88;;;;;;;;;;5081522;28;20060;-67
2021/08/01 07:25:45;;;;;;;14.05;8.40;;;;;;;;;;5056015;28;20520;-67
2021/08/01 07:28:33;;;;;;;5.32;4.82;;;;;;;;;;5058719;28;20051;-67
2021/08/01 07:31:19;;;;;;;5.22;3.65;;;;;;;;;;5074469;28;20040;-67
2021/08/01 07:34:04;;;;;;;5.25;2.95;;;;;;;;;;5074156;28;20044;-67
2021/08/01 07:36:49;;;;;;;4.32;2.67;;;;;;;;;;5071857;28;20496;-67
2021/08/01 07:39:35;;;;;;;3.17;2.60;;;;;;;;;;5059059;28;20183;-66
2021/08/01 07:42:20;;;;;;;4.05;3.03;;;;;;;;;;5071837;28;20033;-67
2021/08/01 07:45:10;;;;;;;3.58;2.70;;;;;;;;;;5073886;28;20121;-67
2021/08/01 07:47:56;;;;;;;3.08;2.00;;;;;;;;;;5074091;28;20114;-66
2021/08/01 07:50:41;;;;;;;3.83;2.58;;;;;;;;;;5069202;28;20045;-65
2021/08/01 07:53:26;;;;;;;6.85;2.67;;;;;;;;;;5070143;28;20048;-66
2021/08/01 07:56:11;;;;;;;3.83;3.47;;;;;;;;;;5050804;28;20054;-67
2021/08/01 07:58:57;;;;;;;5.22;3.92;;;;;;;;;;5074155;28;20063;-67
2021/08/01 08:01:42;;;;;;;11.15;4.43;;;;;;;;;;5056302;28;20056;-67
2021/08/01 08:04:28;;;;;;;6.78;5.72;;;;;;;;;;5073517;28;20056;-68
2021/08/01 08:07:13;;;;;;;8.48;6.53;;;;;;;;;;5071018;28;20385;-67
2021/08/01 08:09:58;;;;;;;9.48;8.07;;;;;;;;;;5072332;28;20056;-67
2021/08/01 08:12:44;;;;;;;14.70;10.55;;;;;;;;;;5071112;28;20512;-67
2021/08/01 08:15:29;;;;;;;31.20;15.55;;;;;;;;;;5072286;28;20561;-66
2021/08/01 08:18:14;;;;;;;20.20;14.32;;;;;;;;;;5057249;28;20521;-67
2021/08/01 08:21:00;;;;;;;18.90;13.65;;;;;;;;;;5073596;28;20555;-67
2021/08/01 08:23:45;;;;;;;16.27;9.40;;;;;;;;;;5051872;28;20107;-67
2021/08/01 08:26:31;;;;;;;7.40;5.72;;;;;;;;;;5054475;28;20045;-66
2021/08/01 08:29:17;;;;;;;7.53;6.80;;;;;;;;;;5073363;28;20086;-66
2021/08/01 08:32:02;;;;;;;5.18;4.68;;;;;;;;;;5067188;28;20052;-66
2021/08/01 08:34:47;;;;;;;5.00;3.38;;;;;;;;;;5050396;28;20066;-65
2021/08/01 08:37:33;;;;;;;3.33;3.10;;;;;;;;;;5050045;28;20049;-66
2021/08/01 08:40:18;;;;;;;3.20;2.90;;;;;;;;;;5049247;28;20407;-67
2021/08/01 08:43:04;;;;;;;2.35;1.85;;;;;;;;;;5050646;28;20496;-66
2021/08/01 08:45:49;;;;;;;2.40;2.00;;;;;;;;;;5056097;28;20049;-67
2021/08/01 08:48:34;;;;;;;2.58;1.98;;;;;;;;;;5056778;28;20566;-66
2021/08/01 08:51:19;;;;;;;2.25;2.05;;;;;;;;;;5066422;28;20048;-66
2021/08/01 08:54:05;;;;;;;3.55;2.42;;;;;;;;;;5057083;28;20089;-66
2021/08/01 08:56:50;;;;;;;3.22;2.40;;;;;;;;;;5052619;28;20641;-65
2021/08/01 08:59:36;;;;;;;3.88;3.58;;;;;;;;;;5067202;28;20397;-66
2021/08/01 09:02:21;;;;;;;3.90;3.58;;;;;;;;;;5069248;28;20043;-67
2021/08/01 09:05:07;;;;;;;3.50;3.20;;;;;;;;;;5072282;28;20106;-66
2021/08/01 09:07:52;;;;;;;4.22;3.83;;;;;;;;;;5069755;28;20048;-67
2021/08/01 09:10:38;;;;;;;6.05;4.82;;;;;;;;;;5072184;28;20198;-67
2021/08/01 09:13:42;;;;;;;5.80;5.25;;;;;;;;;;5069272;28;20779;-71
2021/08/01 09:16:43;;;;;;;7.60;6.18;;;;;;;;;;5072150;28;20044;-66
2021/08/01 09:19:29;;;;;;;2.58;2.38;;;;;;;;;;5066877;28;20538;-67
2021/08/01 09:22:22;;;;;;;2.45;1.98;;;;;;;;;;5072172;28;20059;-66
2021/08/01 09:25:23;;;;;;;2.50;2.28;;;;;;;;;;5055813;28;20131;-66
2021/08/01 09:28:13;;;;;;;3.38;1.77;;;;;;;;;;5070897;28;20047;-66
2021/08/01 09:31:05;;;;;;;1.90;1.58;;;;;;;;;;5066354;28;20124;-67
2021/08/01 09:33:53;;;;;;;4.25;1.75;;;;;;;;;;5060094;28;20056;-66
2021/08/01 09:36:49;;;;;;;1.55;1.45;;;;;;;;;;5072098;28;20048;-67
2021/08/01 09:39:41;;;;;;;1.75;1.58;;;;;;;;;;5054435;28;20531;-67
2021/08/01 09:42:26;;;;;;;1.70;1.60;;;;;;;;;;5068327;28;20052;-67
2021/08/01 09:45:21;;;;;;;2.25;1.92;;;;;;;;;;5034581;28;20124;-67
2021/08/01 09:48:20;;;;;;;1.70;1.45;;;;;;;;;;5062432;28;20121;-67
2021/08/01 09:51:05;;;;;;;2.30;1.75;;;;;;;;;;5062095;28;20091;-67
2021/08/01 09:53:53;;;;;;;2.88;2.30;;;;;;;;;;5056056;28;20053;-67
2021/08/01 09:56:39;;;;;;;2.63;2.13;;;;;;;;;;5036612;28;20040;-67
2021/08/01 09:59:28;;;;;;;2.30;2.10;;;;;;;;;;5055671;28;20534;-66
2021/08/01 10:02:13;;;;;;;3.15;2.65;;;;;;;;;;5067283;28;20051;-67
2021/08/01 10:04:58;;;;;;;2.35;2.15;;;;;;;;;;5046893;28;20083;-68
2021/08/01 10:07:44;;;;;;;2.65;2.45;;;;;;;;;;5040479;28;20056;-67
2021/08/01 10:10:29;;;;;;;2.63;2.05;;;;;;;;;;5049652;28;20460;-67
2021/08/01 10:13:15;;;;;;;3.55;3.17;;;;;;;;;;5047571;28;20040;-67
2021/08/01 10:16:00;;;;;;;2.72;2.53;;;;;;;;;;5044179;28;20037;-67
2021/08/01 10:18:46;;;;;;;3.40;3.10;;;;;;;;;;5048532;28;20118;-66
2021/08/01 10:21:32;;;;;;;4.88;2.85;;;;;;;;;;5049114;28;20504;-66
2021/08/01 10:24:21;;;;;;;5.65;3.33;;;;;;;;;;5052908;28;20123;-66
2021/08/01 10:27:07;;;;;;;3.97;3.65;;;;;;;;;;5050849;28;20043;-65
2021/08/01 10:29:54;;;;;;;3.45;2.60;;;;;;;;;;5068504;28;20446;-65
2021/08/01 10:32:40;;;;;;;3.03;2.72;;;;;;;;;;5071289;28;20045;-65
2021/08/01 10:35:26;;;;;;;3.35;3.00;;;;;;;;;;5053070;28;20051;-65
2021/08/01 10:38:11;;;;;;;3.08;2.78;;;;;;;;;;5056035;28;20044;-66
2021/08/01 10:40:58;;;;;;;2.53;2.30;;;;;;;;;;5053457;28;20403;-66
2021/08/01 10:43:43;;;;;;;3.20;2.90;;;;;;;;;;5055811;28;20125;-65
2021/08/01 10:46:28;;;;;;;2.60;2.40;;;;;;;;;;5050436;28;20068;-64
2021/08/01 10:49:13;;;;;;;2.90;2.60;;;;;;;;;;5050299;28;20571;-64
2021/08/01 10:51:58;;;;;;;2.63;2.40;;;;;;;;;;5044498;28;20049;-64
2021/08/01 10:54:56;;;;;;;2.85;2.55;;;;;;;;;;5053341;28;20085;-64
2021/08/01 10:57:41;;;;;;;3.00;2.80;;;;;;;;;;5059712;28;20133;-64
2021/08/01 11:00:26;;;;;;;2.70;2.50;;;;;;;;;;5054108;28;20052;-65
2021/08/01 11:03:18;;;;;;;5.28;3.05;;;;;;;;;;5040009;28;20120;-64
2021/08/01 11:06:03;;;;;;;2.80;2.55;;;;;;;;;;5071825;28;20040;-65
2021/08/01 11:09:07;;;;;;;3.22;2.92;;;;;;;;;;5074923;28;20484;-65
2021/08/01 11:12:11;;;;;;;4.63;3.22;;;;;;;;;;5066385;28;20037;-65
2021/08/01 11:14:57;;;;;;;3.40;3.10;;;;;;;;;;5057742;28;20071;-67
2021/08/01 11:17:49;;;;;;;3.80;3.50;;;;;;;;;;5071122;28;20154;-64
2021/08/01 11:20:34;;;;;;;4.15;3.40;;;;;;;;;;5071014;28;20419;-66
2021/08/01 11:23:20;;;;;;;3.80;3.50;;;;;;;;;;5074462;28;20048;-64
2021/08/01 11:26:05;;;;;;;4.25;3.95;;;;;;;;;;5055121;28;20040;-64
2021/08/01 11:29:06;;;;;;;4.95;4.53;;;;;;;;;;5069833;28;20090;-64
2021/08/01 11:32:07;;;;;;;4.68;4.28;;;;;;;;;;5072058;28;20143;-65
2021/08/01 11:35:11;;;;;;;5.10;4.60;;;;;;;;;;5033590;28;20088;-65
2021/08/01 11:38:09;;;;;;;5.10;4.60;;;;;;;;;;5057730;28;20309;-64
2021/08/01 11:40:54;;;;;;;4.65;4.25;;;;;;;;;;5074179;28;20055;-63
2021/08/01 11:43:39;;;;;;;5.28;4.78;;;;;;;;;;5054370;28;20041;-64
2021/08/01 11:46:25;;;;;;;4.65;4.20;;;;;;;;;;5058320;28;20129;-65
2021/08/01 11:49:10;;;;;;;4.68;4.28;;;;;;;;;;5057945;28;20052;-63
2021/08/01 11:51:56;;;;;;;6.00;5.03;;;;;;;;;;5059421;28;20120;-64
2021/08/01 11:54:42;;;;;;;6.00;5.47;;;;;;;;;;5073802;28;20044;-64
2021/08/01 11:57:29;;;;;;;4.60;4.20;;;;;;;;;;5071708;28;20041;-64
2021/08/01 12:00:14;;;;;;;4.88;4.45;;;;;;;;;;5059260;28;20166;-64
2021/08/01 12:03:00;;;;;;;3.92;3.63;;;;;;;;;;5073968;28;20146;-64
2021/08/01 12:05:49;;;;;;;4.22;3.83;;;;;;;;;;5056252;28;20049;-63
2021/08/01 12:08:35;;;;;;;3.92;3.53;;;;;;;;;;5074070;28;20060;-65
2021/08/01 12:11:23;;;;;;;3.22;2.40;;;;;;;;;;5073789;28;20080;-65
2021/08/01 12:14:12;;;;;;;4.07;3.70;;;;;;;;;;5071048;28;20072;-65
2021/08/01 12:16:58;;;;;;;3.80;3.50;;;;;;;;;;5073791;28;20067;-64
2021/08/01 12:19:46;;;;;;;4.10;3.70;;;;;;;;;;5071126;28;20167;-64
2021/08/01 12:22:33;;;;;;;3.85;3.38;;;;;;;;;;5073605;28;20098;-64
2021/08/01 12:25:18;;;;;;;2.75;2.53;;;;;;;;;;5073446;28;20126;-65
2021/08/01 12:28:03;;;;;;;3.50;3.20;;;;;;;;;;5053682;28;20119;-66
2021/08/01 12:30:49;;;;;;;5.07;3.50;;;;;;;;;;5070967;28;20120;-66
2021/08/01 12:33:34;;;;;;;9.63;1.70;;;;;;;;;;5069322;28;20128;-66
2021/08/01 12:36:27;;;;;;;5.15;1.90;;;;;;;;;;5033554;28;20045;-64
2021/08/01 12:39:16;;;;;;;3.38;2.20;;;;;;;;;;5060838;28;20041;-64
2021/08/01 12:42:04;;;;;;;2.92;2.30;;;;;;;;;;5073416;28;20063;-64
2021/08/01 12:45:15;;;;;;;5.93;3.30;;;;;;;;;;5113237;22;20071;-62
2021/08/01 12:48:01;;;;;;;5.47;3.00;;;;;;;;;;5072938;28;20066;-63
2021/08/01 12:50:47;;;;;;;3.28;2.97;;;;;;;;;;5058115;28;20159;-63
2021/08/01 12:53:33;;;;;;;6.80;2.97;;;;;;;;;;5057211;28;20045;-64
2021/08/01 12:56:18;;;;;;;3.63;2.20;;;;;;;;;;5073068;28;20354;-64
2021/08/01 12:59:10;;;;;;;4.63;3.17;;;;;;;;;;5083002;28;20111;-63
2021/08/01 13:01:55;;;;;;;3.40;3.03;;;;;;;;;;5093163;28;20044;-63
2021/08/01 13:04:41;;;;;;;3.05;2.78;;;;;;;;;;5091615;28;20058;-63
2021/08/01 13:07:27;;;;;;;3.67;2.60;;;;;;;;;;5093052;28;20497;-65
2021/08/01 13:10:12;;;;;;;2.78;1.40;;;;;;;;;;5092905;28;20101;-65
2021/08/01 13:13:08;;;;;;;2.75;1.50;;;;;;;;;;5092778;28;20410;-65
2021/08/01 13:16:00;;;;;;;2.15;1.65;;;;;;;;;;5091258;28;20044;-65
2021/08/01 13:18:45;;;;;;;3.55;1.30;;;;;;;;;;5077882;28;20075;-66
2021/08/01 13:21:30;;;;;;;1.52;1.17;;;;;;;;;;5093155;28;20178;-66
2021/08/01 13:24:16;;;;;;;2.28;1.17;;;;;;;;;;5090417;28;20499;-65
2021/08/01 13:27:01;;;;;;;1.80;1.00;;;;;;;;;;5091168;28;20050;-65
2021/08/01 13:29:47;;;;;;;1.45;1.10;;;;;;;;;;5092205;28;20048;-65
2021/08/01 13:32:37;;;;;;;2.58;1.20;;;;;;;;;;5092447;28;20058;-66
2021/08/01 13:35:23;;;;;;;3.28;1.20;;;;;;;;;;5075648;28;20062;-66
2021/08/01 13:38:10;;;;;;;1.50;1.10;;;;;;;;;;5092145;28;20052;-66
2021/08/01 13:40:55;;;;;;;2.83;1.42;;;;;;;;;;5087936;28;20174;-65
2021/08/01 13:43:45;;;;;;;3.15;1.45;;;;;;;;;;5091766;28;20051;-66
2021/08/01 13:46:30;;;;;;;1.35;0.95;;;;;;;;;;5090066;28;20161;-65
2021/08/01 13:49:16;;;;;;;2.58;1.73;;;;;;;;;;5092078;28;20051;-66
2021/08/01 13:52:01;;;;;;;1.25;1.15;;;;;;;;;;5092094;28;20055;-65
2021/08/01 13:54:47;;;;;;;3.92;1.40;;;;;;;;;;5091652;28;20516;-66
2021/08/01 13:57:32;;;;;;;1.67;1.15;;;;;;;;;;5088155;28;20044;-66
2021/08/01 14:00:18;;;;;;;2.70;1.25;;;;;;;;;;5065972;28;20056;-64
2021/08/01 14:03:05;;;;;;;2.30;0.90;;;;;;;;;;5052192;28;20059;-64
2021/08/01 14:05:50;;;;;;;2.30;1.17;;;;;;;;;;5076631;28;20052;-65
2021/08/01 14:08:36;;;;;;;3.92;1.10;;;;;;;;;;5074783;28;20063;-65
2021/08/01 14:11:21;;;;;;;2.38;1.30;;;;;;;;;;5077524;28;20094;-65
2021/08/01 14:14:06;;;;;;;2.20;1.30;;;;;;;;;;5077622;28;20048;-65
2021/08/01 14:16:51;;;;;;;3.60;1.08;;;;;;;;;;5075221;28;20044;-65
2021/08/01 14:19:37;;;;;;;2.67;1.05;;;;;;;;;;5060570;28;20525;-65
2021/08/01 14:22:22;;;;;;;1.20;1.05;;;;;;;;;;5068776;28;20076;-65
2021/08/01 14:25:08;;;;;;;2.10;0.80;;;;;;;;;;5059255;28;20055;-65
2021/08/01 14:27:53;;;;;;;1.60;0.90;;;;;;;;;;5065781;28;20833;-65
2021/08/01 14:30:39;;;;;;;2.28;1.02;;;;;;;;;;5054417;28;20051;-65
2021/08/01 14:33:28;;;;;;;2.15;1.17;;;;;;;;;;5070511;28;20153;-64
2021/08/01 14:36:13;;;;;;;3.22;1.08;;;;;;;;;;5074092;28;20047;-65
2021/08/01 14:38:59;;;;;;;1.98;1.20;;;;;;;;;;5075995;28;20503;-65
2021/08/01 14:41:45;;;;;;;1.88;1.10;;;;;;;;;;5070016;28;20048;-65
2021/08/01 14:44:31;;;;;;;2.58;1.00;;;;;;;;;;5073814;28;20049;-65
2021/08/01 14:47:24;;;;;;;2.75;1.00;;;;;;;;;;5074713;28;20094;-65
2021/08/01 14:50:27;;;;;;;2.20;0.90;;;;;;;;;;5094538;28;20040;-65
2021/08/01 14:53:13;;;;;;;1.88;0.82;;;;;;;;;;5094244;28;20055;-65
2021/08/01 14:55:59;;;;;;;3.50;0.77;;;;;;;;;;5091204;28;20178;-64
2021/08/01 14:58:44;;;;;;;2.15;0.85;;;;;;;;;;5057361;28;20135;-65
2021/08/01 15:01:32;;;;;;;2.45;1.00;;;;;;;;;;5058251;28;20044;-65
2021/08/01 15:04:31;;;;;;;2.75;1.00;;;;;;;;;;5073017;28;20049;-65
2021/08/01 15:07:17;;;;;;;2.13;0.90;;;;;;;;;;5084652;28;20040;-65
2021/08/01 15:10:06;;;;;;;1.38;0.90;;;;;;;;;;5092620;28;20046;-65
2021/08/01 15:12:52;;;;;;;2.83;1.00;;;;;;;;;;5091501;28;20051;-65
2021/08/01 15:15:38;;;;;;;5.38;1.17;;;;;;;;;;5076196;28;20421;-65
2021/08/01 15:18:24;;;;;;;1.38;1.08;;;;;;;;;;5091610;28;20069;-65
2021/08/01 15:21:10;;;;;;;2.47;0.80;;;;;;;;;;5076906;28;20047;-65
2021/08/01 15:24:09;;;;;;;2.83;0.95;;;;;;;;;;5075881;28;20504;-65
2021/08/01 15:26:55;;;;;;;5.07;1.38;;;;;;;;;;5090434;28;20062;-65
2021/08/01 15:29:41;;;;;;;2.35;1.00;;;;;;;;;;5083989;28;20071;-66
2021/08/01 15:32:26;;;;;;;3.97;1.23;;;;;;;;;;5078554;28;20040;-66
2021/08/01 15:35:11;;;;;;;2.13;1.00;;;;;;;;;;5069537;28;20054;-65
2021/08/01 15:37:58;;;;;;;2.33;0.90;;;;;;;;;;5081673;28;20048;-66
2021/08/01 15:40:44;;;;;;;3.17;1.20;;;;;;;;;;5070462;28;20056;-65
2021/08/01 15:43:29;;;;;;;3.95;1.05;;;;;;;;;;5071913;28;20051;-66
2021/08/01 15:46:14;;;;;;;4.18;1.00;;;;;;;;;;5070671;28;20420;-66
2021/08/01 15:48:59;;;;;;;3.15;1.48;;;;;;;;;;5074983;28;20075;-66
2021/08/01 15:51:45;;;;;;;4.22;1.10;;;;;;;;;;5091189;28;20056;-66
2021/08/01 15:54:35;;;;;;;5.70;1.30;;;;;;;;;;5091094;28;20087;-66
2021/08/01 15:57:20;;;;;;;3.72;0.93;;;;;;;;;;5076725;28;20217;-66
2021/08/01 16:00:06;;;;;;;3.95;1.50;;;;;;;;;;5051785;28;20408;-66
2021/08/01 16:02:55;;;;;;;3.75;1.55;;;;;;;;;;5051197;28;20493;-66
2021/08/01 16:05:40;;;;;;;5.15;1.25;;;;;;;;;;5049973;28;20404;-66
2021/08/01 16:08:31;;;;;;;4.57;1.23;;;;;;;;;;5062915;28;20044;-66
2021/08/01 16:11:17;;;;;;;4.13;1.30;;;;;;;;;;5091770;28;20424;-66
2021/08/01 16:14:06;;;;;;;4.20;1.27;;;;;;;;;;5091376;28;20044;-66
2021/08/01 16:16:55;;;;;;;5.82;1.08;;;;;;;;;;5076367;28;20048;-65
2021/08/01 16:19:40;;;;;;;4.22;1.50;;;;;;;;;;5087500;28;20063;-66
2021/08/01 16:22:26;;;;;;;6.95;1.55;;;;;;;;;;5076307;28;20173;-66
2021/08/01 16:25:13;;;;;;;4.68;1.30;;;;;;;;;;5090664;28;20047;-66
2021/08/01 16:27:58;;;;;;;3.75;1.30;;;;;;;;;;5093019;28;20044;-66
2021/08/01 16:30:44;;;;;;;6.65;1.70;;;;;;;;;;5059034;28;20061;-66
2021/08/01 16:33:29;;;;;;;5.90;1.55;;;;;;;;;;5048435;28;20119;-66
2021/08/01 16:36:15;;;;;;;7.55;1.50;;;;;;;;;;5070159;28;20055;-66
2021/08/01 16:39:00;;;;;;;4.85;1.13;;;;;;;;;;5071065;28;20141;-66
2021/08/01 16:41:47;;;;;;;8.40;1.60;;;;;;;;;;5090150;28;20423;-66
2021/08/01 16:44:38;;;;;;;3.17;1.23;;;;;;;;;;5091105;28;20063;-64
2021/08/01 16:47:26;;;;;;;5.25;1.48;;;;;;;;;;5091621;28;20530;-66
2021/08/01 16:50:12;;;;;;;4.35;0.90;;;;;;;;;;5073338;28;20079;-66
2021/08/01 16:53:00;;;;;;;6.32;1.73;;;;;;;;;;5089890;28;20111;-66
2021/08/01 16:55:49;;;;;;;3.97;1.27;;;;;;;;;;5089335;28;20055;-66
2021/08/01 16:58:41;;;;;;;3.25;1.00;;;;;;;;;;5089006;28;20043;-66
2021/08/01 17:01:29;;;;;;;5.15;1.40;;;;;;;;;;5087908;28;20052;-66